sensor_id;sensor_type;location;lat;lon;timestamp;pressure;altitude;pressure_sealevel;temperature;humidity
55347;BME280;41218;55.700;38.270;2023-04-27T00:03:17;99102.50;;;7.43;61.47
55347;BME280;41218;55.700;38.270;2023-04-27T00:08:18;99097.25;;;7.35;61.32
55347;BME280;41218;55.700;38.270;2023-04-27T00:13:18;99111.34;;;7.33;61.53
55347;BME280;41218;55.700;38.270;2023-04-27T00:18:19;99108.53;;;7.30;61.29
55347;BME280;41218;55.700;38.270;2023-04-27T00:23:19;99109.97;;;7.23;61.16
55347;BME280;41218;55.700;38.270;2023-04-27T00:28:20;99119.31;;;7.19;61.35
55347;BME280;41218;55.700;38.270;2023-04-27T00:33:20;99112.16;;;7.14;61.63
55347;BME280;41218;55.700;38.270;2023-04-27T00:38:21;99119.53;;;7.10;61.38
55347;BME280;41218;55.700;38.270;2023-04-27T00:43:21;99118.69;;;7.06;61.61
55347;BME280;41218;55.700;38.270;2023-04-27T00:48:22;99116.56;;;6.99;61.27
55347;BME280;41218;55.700;38.270;2023-04-27T00:53:24;99119.25;;;6.96;61.19
55347;BME280;41218;55.700;38.270;2023-04-27T00:58:24;99112.47;;;6.90;61.47
55347;BME280;41218;55.700;38.270;2023-04-27T01:03:25;99118.31;;;6.88;61.44
55347;BME280;41218;55.700;38.270;2023-04-27T01:08:27;99121.31;;;6.83;61.32
55347;BME280;41218;55.700;38.270;2023-04-27T01:13:28;99124.00;;;6.79;61.56
55347;BME280;41218;55.700;38.270;2023-04-27T01:18:28;99119.16;;;6.73;61.37
55347;BME280;41218;55.700;38.270;2023-04-27T01:23:29;99097.69;;;6.59;61.63
55347;BME280;41218;55.700;38.270;2023-04-27T01:28:30;99117.41;;;6.65;61.31
55347;BME280;41218;55.700;38.270;2023-04-27T01:33:31;99103.09;;;6.55;61.55
55347;BME280;41218;55.700;38.270;2023-04-27T01:38:32;99110.03;;;6.49;61.52
55347;BME280;41218;55.700;38.270;2023-04-27T01:43:32;99123.00;;;6.52;61.34
55347;BME280;41218;55.700;38.270;2023-04-27T01:48:34;99108.88;;;6.34;61.33
55347;BME280;41218;55.700;38.270;2023-04-27T01:53:35;99125.09;;;6.39;61.51
55347;BME280;41218;55.700;38.270;2023-04-27T01:58:35;99126.41;;;6.30;61.60
55347;BME280;41218;55.700;38.270;2023-04-27T02:03:36;99137.75;;;6.28;61.88
55347;BME280;41218;55.700;38.270;2023-04-27T02:08:36;99138.38;;;6.21;62.05
55347;BME280;41218;55.700;38.270;2023-04-27T02:13:37;99137.16;;;6.19;61.93
55347;BME280;41218;55.700;38.270;2023-04-27T02:18:37;99148.03;;;6.15;62.02
55347;BME280;41218;55.700;38.270;2023-04-27T02:23:38;99150.69;;;6.12;61.74
55347;BME280;41218;55.700;38.270;2023-04-27T02:28:38;99146.63;;;6.06;61.94
55347;BME280;41218;55.700;38.270;2023-04-27T02:33:39;99157.50;;;6.02;62.38
55347;BME280;41218;55.700;38.270;2023-04-27T02:38:40;99160.78;;;6.08;62.07
55347;BME280;41218;55.700;38.270;2023-04-27T02:43:40;99179.09;;;6.04;61.93
55347;BME280;41218;55.700;38.270;2023-04-27T02:48:41;99161.91;;;5.91;61.94
55347;BME280;41218;55.700;38.270;2023-04-27T02:53:41;99170.22;;;5.94;62.25
55347;BME280;41218;55.700;38.270;2023-04-27T02:58:42;99178.81;;;5.93;62.14
55347;BME280;41218;55.700;38.270;2023-04-27T03:03:45;99191.34;;;5.94;62.30
55347;BME280;41218;55.700;38.270;2023-04-27T03:08:46;99204.63;;;5.92;62.17
55347;BME280;41218;55.700;38.270;2023-04-27T03:13:47;99214.59;;;5.96;62.18
55347;BME280;41218;55.700;38.270;2023-04-27T03:18:47;99213.53;;;6.01;62.39
55347;BME280;41218;55.700;38.270;2023-04-27T03:23:48;99215.94;;;6.03;62.29
55347;BME280;41218;55.700;38.270;2023-04-27T03:28:48;99214.88;;;6.07;62.74
55347;BME280;41218;55.700;38.270;2023-04-27T03:33:49;99211.56;;;6.01;62.88
55347;BME280;41218;55.700;38.270;2023-04-27T03:38:49;99224.22;;;6.06;63.02
55347;BME280;41218;55.700;38.270;2023-04-27T03:43:50;99234.63;;;6.13;63.11
55347;BME280;41218;55.700;38.270;2023-04-27T03:48:52;99226.94;;;6.18;63.21
55347;BME280;41218;55.700;38.270;2023-04-27T03:53:53;99229.28;;;6.20;63.85
55347;BME280;41218;55.700;38.270;2023-04-27T03:58:53;99244.44;;;6.30;64.35
55347;BME280;41218;55.700;38.270;2023-04-27T04:03:54;99244.25;;;6.38;64.70
55347;BME280;41218;55.700;38.270;2023-04-27T04:08:55;99240.28;;;6.52;65.57
55347;BME280;41218;55.700;38.270;2023-04-27T04:13:56;99255.88;;;6.64;66.25
55347;BME280;41218;55.700;38.270;2023-04-27T04:18:56;99259.06;;;6.81;66.25
55347;BME280;41218;55.700;38.270;2023-04-27T04:23:57;99257.22;;;7.05;66.80
55347;BME280;41218;55.700;38.270;2023-04-27T04:28:57;99254.59;;;7.28;67.04
55347;BME280;41218;55.700;38.270;2023-04-27T04:33:59;99258.59;;;7.50;68.71
55347;BME280;41218;55.700;38.270;2023-04-27T04:39:01;99258.66;;;7.73;68.28
55347;BME280;41218;55.700;38.270;2023-04-27T04:44:02;99257.50;;;7.94;68.51
55347;BME280;41218;55.700;38.270;2023-04-27T04:49:03;99265.47;;;8.22;69.21
55347;BME280;41218;55.700;38.270;2023-04-27T04:54:04;99268.41;;;8.52;69.61
55347;BME280;41218;55.700;38.270;2023-04-27T04:59:04;99273.94;;;8.79;69.73
55347;BME280;41218;55.700;38.270;2023-04-27T05:04:05;99277.63;;;9.13;70.16
55347;BME280;41218;55.700;38.270;2023-04-27T05:09:06;99271.72;;;9.41;70.21
55347;BME280;41218;55.700;38.270;2023-04-27T05:14:06;99276.03;;;9.69;69.93
55347;BME280;41218;55.700;38.270;2023-04-27T05:19:07;99283.53;;;10.06;69.87
55347;BME280;41218;55.700;38.270;2023-04-27T05:24:07;99288.31;;;10.47;69.40
55347;BME280;41218;55.700;38.270;2023-04-27T05:29:08;99285.06;;;10.82;68.65
55347;BME280;41218;55.700;38.270;2023-04-27T05:34:08;99279.72;;;11.11;68.27
55347;BME280;41218;55.700;38.270;2023-04-27T05:39:09;99283.47;;;11.40;67.45
55347;BME280;41218;55.700;38.270;2023-04-27T05:44:10;99280.06;;;11.68;66.64
55347;BME280;41218;55.700;38.270;2023-04-27T05:49:10;99278.16;;;11.87;66.07
55347;BME280;41218;55.700;38.270;2023-04-27T05:54:11;99284.19;;;12.10;65.35
55347;BME280;41218;55.700;38.270;2023-04-27T05:59:11;99291.00;;;12.38;64.87
55347;BME280;41218;55.700;38.270;2023-04-27T06:04:13;99281.50;;;12.60;64.28
55347;BME280;41218;55.700;38.270;2023-04-27T06:09:14;99278.34;;;12.80;63.71
55347;BME280;41218;55.700;38.270;2023-04-27T06:14:14;99294.59;;;13.03;63.26
55347;BME280;41218;55.700;38.270;2023-04-27T06:19:15;99293.78;;;13.20;62.71
55347;BME280;41218;55.700;38.270;2023-04-27T06:24:16;99294.56;;;13.39;62.50
55347;BME280;41218;55.700;38.270;2023-04-27T06:29:17;99300.47;;;13.55;62.05
55347;BME280;41218;55.700;38.270;2023-04-27T06:34:17;99306.75;;;13.74;61.57
55347;BME280;41218;55.700;38.270;2023-04-27T06:39:18;99318.22;;;13.90;61.27
55347;BME280;41218;55.700;38.270;2023-04-27T06:44:18;99314.97;;;14.06;60.84
55347;BME280;41218;55.700;38.270;2023-04-27T06:49:19;99311.69;;;14.26;60.25
55347;BME280;41218;55.700;38.270;2023-04-27T06:54:19;99319.13;;;14.43;59.91
55347;BME280;41218;55.700;38.270;2023-04-27T06:59:20;99325.81;;;14.60;59.39
55347;BME280;41218;55.700;38.270;2023-04-27T07:04:21;99320.09;;;14.81;58.68
55347;BME280;41218;55.700;38.270;2023-04-27T07:09:21;99320.75;;;15.00;58.27
55347;BME280;41218;55.700;38.270;2023-04-27T07:14:22;99317.81;;;15.18;58.10
55347;BME280;41218;55.700;38.270;2023-04-27T07:19:22;99323.22;;;15.36;57.48
55347;BME280;41218;55.700;38.270;2023-04-27T07:24:23;99327.00;;;15.53;56.77
55347;BME280;41218;55.700;38.270;2023-04-27T07:29:23;99327.28;;;15.66;56.38
55347;BME280;41218;55.700;38.270;2023-04-27T07:34:27;99324.81;;;15.75;55.76
55347;BME280;41218;55.700;38.270;2023-04-27T07:39:28;99322.66;;;15.90;55.20
55347;BME280;41218;55.700;38.270;2023-04-27T07:44:31;99326.44;;;16.07;54.72
55347;BME280;41218;55.700;38.270;2023-04-27T07:49:31;99339.66;;;16.30;54.12
55347;BME280;41218;55.700;38.270;2023-04-27T07:54:32;99338.22;;;16.49;53.48
55347;BME280;41218;55.700;38.270;2023-04-27T07:59:32;99329.66;;;16.63;52.92
55347;BME280;41218;55.700;38.270;2023-04-27T08:04:32;99324.63;;;16.81;52.51
55347;BME280;41218;55.700;38.270;2023-04-27T08:09:33;99332.72;;;16.99;52.44
55347;BME280;41218;55.700;38.270;2023-04-27T08:14:34;99328.91;;;17.13;52.00
55347;BME280;41218;55.700;38.270;2023-04-27T08:19:35;99325.50;;;17.26;51.79
55347;BME280;41218;55.700;38.270;2023-04-27T08:24:36;99320.47;;;17.37;50.99
55347;BME280;41218;55.700;38.270;2023-04-27T08:29:36;99329.31;;;17.55;49.36
55347;BME280;41218;55.700;38.270;2023-04-27T08:34:37;99323.97;;;17.65;50.16
55347;BME280;41218;55.700;38.270;2023-04-27T08:39:38;99314.22;;;17.73;49.93
55347;BME280;41218;55.700;38.270;2023-04-27T08:44:42;99319.84;;;17.93;50.30
55347;BME280;41218;55.700;38.270;2023-04-27T08:49:43;99329.75;;;17.97;49.39
55347;BME280;41218;55.700;38.270;2023-04-27T08:54:43;99322.19;;;18.14;49.33
55347;BME280;41218;55.700;38.270;2023-04-27T08:59:44;99318.97;;;18.16;48.79
55347;BME280;41218;55.700;38.270;2023-04-27T09:04:44;99324.19;;;18.34;49.12
55347;BME280;41218;55.700;38.270;2023-04-27T09:09:45;99308.59;;;18.33;48.81
55347;BME280;41218;55.700;38.270;2023-04-27T09:14:58;99331.06;;;18.49;47.56
55347;BME280;41218;55.700;38.270;2023-04-27T09:20:07;99320.81;;;18.59;47.56
55347;BME280;41218;55.700;38.270;2023-04-27T09:25:08;99315.69;;;18.74;47.81
55347;BME280;41218;55.700;38.270;2023-04-27T09:30:12;99323.94;;;18.97;48.21
55347;BME280;41218;55.700;38.270;2023-04-27T09:35:21;99312.13;;;18.90;46.08
55347;BME280;41218;55.700;38.270;2023-04-27T09:40:26;99313.34;;;19.05;46.06
55347;BME280;41218;55.700;38.270;2023-04-27T09:45:28;99320.34;;;19.13;46.24
55347;BME280;41218;55.700;38.270;2023-04-27T09:50:30;99307.38;;;19.19;45.69
55347;BME280;41218;55.700;38.270;2023-04-27T09:55:35;99323.31;;;19.23;45.42
55347;BME280;41218;55.700;38.270;2023-04-27T10:11:34;99315.03;;;19.48;45.09
55347;BME280;41218;55.700;38.270;2023-04-27T10:16:45;99303.78;;;19.65;44.92
55347;BME280;41218;55.700;38.270;2023-04-27T10:21:54;99299.28;;;19.84;43.85
55347;BME280;41218;55.700;38.270;2023-04-27T10:27:01;99309.38;;;19.81;43.83
55347;BME280;41218;55.700;38.270;2023-04-27T10:32:10;99303.09;;;19.77;43.69
55347;BME280;41218;55.700;38.270;2023-04-27T10:37:10;99300.31;;;19.90;44.75
55347;BME280;41218;55.700;38.270;2023-04-27T10:42:11;99307.53;;;20.04;44.30
55347;BME280;41218;55.700;38.270;2023-04-27T10:47:16;99298.09;;;20.10;42.71
55347;BME280;41218;55.700;38.270;2023-04-27T10:52:19;99294.06;;;20.11;43.79
55347;BME280;41218;55.700;38.270;2023-04-27T10:57:19;99309.53;;;20.03;43.60
55347;BME280;41218;55.700;38.270;2023-04-27T11:02:27;99313.09;;;19.91;42.71
55347;BME280;41218;55.700;38.270;2023-04-27T11:07:28;99316.53;;;19.82;43.90
55347;BME280;41218;55.700;38.270;2023-04-27T11:12:30;99310.81;;;19.73;43.56
55347;BME280;41218;55.700;38.270;2023-04-27T11:17:31;99304.13;;;19.67;44.00
55347;BME280;41218;55.700;38.270;2023-04-27T11:22:32;99317.34;;;19.66;44.15
55347;BME280;41218;55.700;38.270;2023-04-27T11:27:36;99313.09;;;19.61;43.40
55347;BME280;41218;55.700;38.270;2023-04-27T11:32:37;99330.44;;;19.56;43.76
55347;BME280;41218;55.700;38.270;2023-04-27T11:37:38;99346.31;;;19.47;44.08
55347;BME280;41218;55.700;38.270;2023-04-27T11:42:38;99375.50;;;19.33;44.42
55347;BME280;41218;55.700;38.270;2023-04-27T11:47:45;99384.25;;;19.02;46.08
55347;BME280;41218;55.700;38.270;2023-04-27T11:52:47;99366.06;;;18.57;47.80
55347;BME280;41218;55.700;38.270;2023-04-27T11:57:48;99373.47;;;18.28;49.13
55347;BME280;41218;55.700;38.270;2023-04-27T12:02:49;99373.06;;;18.09;49.90
55347;BME280;41218;55.700;38.270;2023-04-27T12:07:51;99375.50;;;18.07;50.68
55347;BME280;41218;55.700;38.270;2023-04-27T12:12:51;99370.75;;;18.24;51.50
55347;BME280;41218;55.700;38.270;2023-04-27T12:17:51;99361.13;;;18.45;52.50
55347;BME280;41218;55.700;38.270;2023-04-27T12:22:52;99356.09;;;18.73;51.95
55347;BME280;41218;55.700;38.270;2023-04-27T12:27:53;99357.09;;;18.83;52.81
55347;BME280;41218;55.700;38.270;2023-04-27T12:32:53;99355.72;;;18.91;52.79
55347;BME280;41218;55.700;38.270;2023-04-27T12:37:54;99347.66;;;18.93;52.94
55347;BME280;41218;55.700;38.270;2023-04-27T12:42:54;99335.59;;;18.96;52.51
55347;BME280;41218;55.700;38.270;2023-04-27T12:47:55;99346.34;;;19.14;52.16
55347;BME280;41218;55.700;38.270;2023-04-27T12:52:55;99336.09;;;19.07;52.33
55347;BME280;41218;55.700;38.270;2023-04-27T12:57:56;99333.22;;;19.11;52.20
55347;BME280;41218;55.700;38.270;2023-04-27T13:02:57;99329.09;;;19.15;51.50
55347;BME280;41218;55.700;38.270;2023-04-27T13:07:58;99325.31;;;19.22;50.88
55347;BME280;41218;55.700;38.270;2023-04-27T13:12:58;99320.97;;;19.21;50.40
55347;BME280;41218;55.700;38.270;2023-04-27T13:17:59;99322.50;;;19.22;49.90
55347;BME280;41218;55.700;38.270;2023-04-27T13:23:03;99334.44;;;19.26;49.08
55347;BME280;41218;55.700;38.270;2023-04-27T13:28:04;99333.81;;;19.35;48.67
55347;BME280;41218;55.700;38.270;2023-04-27T13:33:04;99330.38;;;19.44;48.05
55347;BME280;41218;55.700;38.270;2023-04-27T13:38:05;99335.00;;;19.50;47.43
55347;BME280;41218;55.700;38.270;2023-04-27T13:43:05;99335.16;;;19.59;47.04
55347;BME280;41218;55.700;38.270;2023-04-27T13:48:06;99331.38;;;19.66;46.28
55347;BME280;41218;55.700;38.270;2023-04-27T13:53:06;99334.53;;;19.68;46.21
55347;BME280;41218;55.700;38.270;2023-04-27T13:58:08;99329.81;;;19.65;45.92
55347;BME280;41218;55.700;38.270;2023-04-27T14:03:09;99327.97;;;19.58;45.80
55347;BME280;41218;55.700;38.270;2023-04-27T14:08:10;99317.50;;;19.46;45.31
55347;BME280;41218;55.700;38.270;2023-04-27T14:13:11;99317.59;;;19.42;45.52
55347;BME280;41218;55.700;38.270;2023-04-27T14:18:12;99303.97;;;19.28;45.44
55347;BME280;41218;55.700;38.270;2023-04-27T14:23:12;99310.84;;;19.40;45.41
55347;BME280;41218;55.700;38.270;2023-04-27T14:28:13;99327.56;;;19.44;45.28
55347;BME280;41218;55.700;38.270;2023-04-27T14:33:14;99319.25;;;19.40;45.01
55347;BME280;41218;55.700;38.270;2023-04-27T14:38:14;99319.47;;;19.33;44.85
55347;BME280;41218;55.700;38.270;2023-04-27T14:43:15;99324.78;;;19.27;44.65
55347;BME280;41218;55.700;38.270;2023-04-27T14:48:17;99315.44;;;19.17;44.56
55347;BME280;41218;55.700;38.270;2023-04-27T14:53:17;99323.91;;;19.14;44.39
55347;BME280;41218;55.700;38.270;2023-04-27T14:58:18;99325.69;;;19.08;44.00
55347;BME280;41218;55.700;38.270;2023-04-27T15:03:18;99313.19;;;18.96;44.23
55347;BME280;41218;55.700;38.270;2023-04-27T15:08:19;99314.41;;;18.95;44.44
55347;BME280;41218;55.700;38.270;2023-04-27T15:13:20;99320.53;;;18.90;44.66
55347;BME280;41218;55.700;38.270;2023-04-27T15:18:21;99319.13;;;18.81;44.87
55347;BME280;41218;55.700;38.270;2023-04-27T15:23:22;99319.69;;;18.73;44.81
55347;BME280;41218;55.700;38.270;2023-04-27T15:28:23;99321.09;;;18.65;44.96
55347;BME280;41218;55.700;38.270;2023-04-27T15:33:24;99320.81;;;18.59;45.17
55347;BME280;41218;55.700;38.270;2023-04-27T15:38:24;99324.66;;;18.65;45.30
55347;BME280;41218;55.700;38.270;2023-04-27T15:43:25;99329.03;;;18.50;45.93
55347;BME280;41218;55.700;38.270;2023-04-27T15:48:26;99325.25;;;18.40;46.45
55347;BME280;41218;55.700;38.270;2023-04-27T15:53:26;99327.41;;;18.32;46.88
55347;BME280;41218;55.700;38.270;2023-04-27T15:58:27;99328.00;;;18.24;47.33
55347;BME280;41218;55.700;38.270;2023-04-27T16:03:27;99335.09;;;18.28;47.08
55347;BME280;41218;55.700;38.270;2023-04-27T16:08:28;99341.06;;;18.10;47.92
55347;BME280;41218;55.700;38.270;2023-04-27T16:13:29;99342.94;;;17.97;48.53
55347;BME280;41218;55.700;38.270;2023-04-27T16:18:31;99339.97;;;17.84;48.92
55347;BME280;41218;55.700;38.270;2023-04-27T16:23:32;99347.16;;;17.85;48.57
55347;BME280;41218;55.700;38.270;2023-04-27T16:28:33;99347.53;;;17.63;49.23
55347;BME280;41218;55.700;38.270;2023-04-27T16:33:33;99348.22;;;17.48;49.72
55347;BME280;41218;55.700;38.270;2023-04-27T16:38:34;99358.97;;;17.49;49.34
55347;BME280;41218;55.700;38.270;2023-04-27T16:43:34;99347.53;;;17.20;50.08
55347;BME280;41218;55.700;38.270;2023-04-27T16:48:35;99367.81;;;17.24;49.81
55347;BME280;41218;55.700;38.270;2023-04-27T16:53:35;99354.72;;;16.94;50.16
55347;BME280;41218;55.700;38.270;2023-04-27T16:58:36;99379.00;;;16.97;50.17
55347;BME280;41218;55.700;38.270;2023-04-27T17:03:36;99378.53;;;16.75;50.65
55347;BME280;41218;55.700;38.270;2023-04-27T17:08:37;99386.16;;;16.71;50.75
55347;BME280;41218;55.700;38.270;2023-04-27T17:13:37;99378.09;;;16.46;51.12
55347;BME280;41218;55.700;38.270;2023-04-27T17:18:38;99388.66;;;16.31;51.79
55347;BME280;41218;55.700;38.270;2023-04-27T17:23:39;99383.53;;;16.26;51.71
55347;BME280;41218;55.700;38.270;2023-04-27T17:28:46;99375.94;;;15.95;51.91
55347;BME280;41218;55.700;38.270;2023-04-27T17:33:47;99399.09;;;15.89;52.34
55347;BME280;41218;55.700;38.270;2023-04-27T17:38:47;99402.03;;;15.78;52.55
55347;BME280;41218;55.700;38.270;2023-04-27T17:43:48;99400.50;;;15.66;52.74
55347;BME280;41218;55.700;38.270;2023-04-27T17:48:49;99402.13;;;15.63;52.61
55347;BME280;41218;55.700;38.270;2023-04-27T17:53:49;99371.03;;;15.27;53.04
55347;BME280;41218;55.700;38.270;2023-04-27T17:58:50;99392.88;;;15.29;53.20
55347;BME280;41218;55.700;38.270;2023-04-27T18:03:50;99393.00;;;15.14;53.44
55347;BME280;41218;55.700;38.270;2023-04-27T18:08:51;99398.66;;;15.00;53.61
55347;BME280;41218;55.700;38.270;2023-04-27T18:13:53;99397.56;;;14.90;53.91
55347;BME280;41218;55.700;38.270;2023-04-27T18:18:53;99390.09;;;14.76;53.85
55347;BME280;41218;55.700;38.270;2023-04-27T18:23:55;99389.75;;;14.67;54.24
55347;BME280;41218;55.700;38.270;2023-04-27T18:28:55;99385.84;;;14.54;54.35
55347;BME280;41218;55.700;38.270;2023-04-27T18:33:58;99388.66;;;14.43;54.38
55347;BME280;41218;55.700;38.270;2023-04-27T18:38:58;99387.50;;;14.33;54.85
55347;BME280;41218;55.700;38.270;2023-04-27T18:44:05;99378.44;;;14.22;55.05
55347;BME280;41218;55.700;38.270;2023-04-27T18:49:05;99380.84;;;14.13;54.90
55347;BME280;41218;55.700;38.270;2023-04-27T18:54:06;99387.22;;;14.06;55.03
55347;BME280;41218;55.700;38.270;2023-04-27T18:59:06;99376.94;;;13.92;54.91
55347;BME280;41218;55.700;38.270;2023-04-27T19:04:07;99381.31;;;13.86;54.95
55347;BME280;41218;55.700;38.270;2023-04-27T19:09:07;99380.94;;;13.80;55.23
55347;BME280;41218;55.700;38.270;2023-04-27T19:14:08;99373.81;;;13.72;55.36
55347;BME280;41218;55.700;38.270;2023-04-27T19:19:08;99369.88;;;13.62;55.49
55347;BME280;41218;55.700;38.270;2023-04-27T19:24:09;99366.31;;;13.51;55.75
55347;BME280;41218;55.700;38.270;2023-04-27T19:29:09;99368.72;;;13.42;55.83
55347;BME280;41218;55.700;38.270;2023-04-27T19:34:10;99366.75;;;13.35;55.89
55347;BME280;41218;55.700;38.270;2023-04-27T19:39:11;99363.97;;;13.28;55.95
55347;BME280;41218;55.700;38.270;2023-04-27T19:44:12;99362.38;;;13.20;55.95
55347;BME280;41218;55.700;38.270;2023-04-27T19:49:13;99354.03;;;13.13;56.19
55347;BME280;41218;55.700;38.270;2023-04-27T19:54:15;99363.53;;;13.01;56.28
55347;BME280;41218;55.700;38.270;2023-04-27T19:59:16;99356.41;;;12.93;56.36
55347;BME280;41218;55.700;38.270;2023-04-27T20:04:16;99367.50;;;12.89;56.58
55347;BME280;41218;55.700;38.270;2023-04-27T20:09:17;99374.22;;;12.81;56.54
55347;BME280;41218;55.700;38.270;2023-04-27T20:14:17;99362.72;;;12.68;56.42
55347;BME280;41218;55.700;38.270;2023-04-27T20:19:18;99370.66;;;12.66;56.77
55347;BME280;41218;55.700;38.270;2023-04-27T20:24:20;99359.94;;;12.54;56.90
55347;BME280;41218;55.700;38.270;2023-04-27T20:29:21;99371.00;;;12.50;57.05
55347;BME280;41218;55.700;38.270;2023-04-27T20:34:22;99375.34;;;12.44;57.27
55347;BME280;41218;55.700;38.270;2023-04-27T20:39:22;99368.97;;;12.36;57.20
55347;BME280;41218;55.700;38.270;2023-04-27T20:44:26;99365.78;;;12.27;57.51
55347;BME280;41218;55.700;38.270;2023-04-27T20:49:27;99366.94;;;12.22;57.52
55347;BME280;41218;55.700;38.270;2023-04-27T20:54:27;99365.72;;;12.16;57.68
55347;BME280;41218;55.700;38.270;2023-04-27T20:59:31;99353.78;;;11.98;57.71
55347;BME280;41218;55.700;38.270;2023-04-27T21:04:32;99370.06;;;12.03;57.63
55347;BME280;41218;55.700;38.270;2023-04-27T21:09:32;99360.91;;;11.95;57.64
55347;BME280;41218;55.700;38.270;2023-04-27T21:14:34;99371.56;;;11.90;58.16
55347;BME280;41218;55.700;38.270;2023-04-27T21:19:35;99366.75;;;11.83;57.88
55347;BME280;41218;55.700;38.270;2023-04-27T21:24:35;99366.69;;;11.76;58.04
55347;BME280;41218;55.700;38.270;2023-04-27T21:29:36;99363.53;;;11.70;58.15
55347;BME280;41218;55.700;38.270;2023-04-27T21:34:36;99356.38;;;11.62;58.22
55347;BME280;41218;55.700;38.270;2023-04-27T21:39:37;99344.81;;;11.49;58.20
55347;BME280;41218;55.700;38.270;2023-04-27T21:44:37;99358.66;;;11.53;58.00
55347;BME280;41218;55.700;38.270;2023-04-27T21:49:38;99360.22;;;11.47;58.14
55347;BME280;41218;55.700;38.270;2023-04-27T21:54:38;99354.66;;;11.43;58.38
55347;BME280;41218;55.700;38.270;2023-04-27T21:59:39;99351.84;;;11.36;58.55
55347;BME280;41218;55.700;38.270;2023-04-27T22:04:39;99340.31;;;11.27;58.56
55347;BME280;41218;55.700;38.270;2023-04-27T22:09:40;99349.00;;;11.25;58.75
55347;BME280;41218;55.700;38.270;2023-04-27T22:14:41;99350.94;;;11.21;58.66
55347;BME280;41218;55.700;38.270;2023-04-27T22:19:42;99359.59;;;11.16;58.70
55347;BME280;41218;55.700;38.270;2023-04-27T22:24:42;99354.03;;;11.12;58.65
55347;BME280;41218;55.700;38.270;2023-04-27T22:29:42;99340.91;;;11.02;58.58
55347;BME280;41218;55.700;38.270;2023-04-27T22:34:43;99347.25;;;11.02;59.03
55347;BME280;41218;55.700;38.270;2023-04-27T22:39:44;99330.59;;;10.95;59.05
55347;BME280;41218;55.700;38.270;2023-04-27T22:44:45;99336.09;;;10.92;59.26
55347;BME280;41218;55.700;38.270;2023-04-27T22:49:45;99338.81;;;10.88;59.00
55347;BME280;41218;55.700;38.270;2023-04-27T22:54:47;99344.72;;;10.83;59.23
55347;BME280;41218;55.700;38.270;2023-04-27T22:59:48;99331.59;;;10.76;59.39
55347;BME280;41218;55.700;38.270;2023-04-27T23:04:50;99337.53;;;10.75;59.10
55347;BME280;41218;55.700;38.270;2023-04-27T23:09:51;99344.59;;;10.72;59.30
55347;BME280;41218;55.700;38.270;2023-04-27T23:14:52;99334.69;;;10.68;59.35
55347;BME280;41218;55.700;38.270;2023-04-27T23:19:52;99332.72;;;10.65;59.28
55347;BME280;41218;55.700;38.270;2023-04-27T23:24:53;99335.44;;;10.61;59.31
55347;BME280;41218;55.700;38.270;2023-04-27T23:29:53;99336.56;;;10.56;59.54
55347;BME280;41218;55.700;38.270;2023-04-27T23:34:54;99342.06;;;10.53;59.52
55347;BME280;41218;55.700;38.270;2023-04-27T23:39:55;99354.28;;;10.52;59.49
55347;BME280;41218;55.700;38.270;2023-04-27T23:44:55;99357.41;;;10.47;59.81
55347;BME280;41218;55.700;38.270;2023-04-27T23:49:56;99354.16;;;10.41;59.87
55347;BME280;41218;55.700;38.270;2023-04-27T23:54:58;99347.09;;;10.43;59.78
